createdAt,value
2022-09-25T00:00:33.054Z,11.87
2022-09-25T00:02:34.358Z,11.89
2022-09-25T00:04:35.695Z,11.88
2022-09-25T00:06:37.444Z,11.84
2022-09-25T00:08:38.507Z,11.82
2022-09-25T00:10:39.828Z,11.81
2022-09-25T00:12:41.287Z,11.8
2022-09-25T00:14:42.978Z,11.77
2022-09-25T00:16:44.119Z,11.77
2022-09-25T00:18:45.722Z,11.8
2022-09-25T00:20:47.510Z,11.79
2022-09-25T00:22:49.199Z,11.79
2022-09-25T00:24:50.768Z,11.78
2022-09-25T00:26:53.560Z,11.84
2022-09-25T00:28:54.077Z,11.83
2022-09-25T00:30:55.353Z,11.85
2022-09-25T00:32:56.475Z,11.92
2022-09-25T00:34:57.849Z,11.96
2022-09-25T00:36:59.640Z,11.99
2022-09-25T00:39:00.818Z,11.99
2022-09-25T00:41:02.167Z,12
2022-09-25T00:43:03.630Z,11.96
2022-09-25T00:45:04.754Z,11.85
2022-09-25T00:47:05.844Z,11.78
2022-09-25T00:49:07.199Z,11.77
2022-09-25T00:51:08.659Z,11.85
2022-09-25T00:53:10.170Z,11.85
2022-09-25T00:57:12.607Z,11.87
2022-09-25T00:59:13.775Z,11.86
2022-09-25T01:01:15.586Z,11.82
2022-09-25T01:03:17.332Z,11.8
2022-09-25T01:05:18.568Z,11.79
2022-09-25T01:07:20.240Z,11.76
2022-09-25T01:09:21.766Z,11.74
2022-09-25T01:11:23.461Z,11.81
2022-09-25T01:13:24.961Z,11.79
2022-09-25T01:15:26.311Z,11.77
2022-09-25T01:17:27.734Z,11.71
2022-09-25T01:19:29.515Z,11.74
2022-09-25T01:21:31.046Z,11.74
2022-09-25T01:23:32.715Z,11.75
2022-09-25T01:25:33.953Z,11.74
2022-09-25T01:27:35.324Z,11.72
2022-09-25T01:29:36.391Z,11.72
2022-09-25T01:31:37.530Z,11.69
2022-09-25T01:35:40.514Z,11.78
2022-09-25T01:39:44.130Z,11.84
2022-09-25T01:41:45.081Z,11.82
2022-09-25T01:43:46.287Z,11.79
2022-09-25T01:45:47.463Z,11.8
2022-09-25T01:47:48.862Z,11.78
2022-09-25T01:49:50.523Z,11.75
2022-09-25T01:51:52.055Z,11.64
2022-09-25T01:53:53.185Z,11.58
2022-09-25T01:55:54.657Z,11.58
2022-09-25T01:57:56.303Z,11.52
2022-09-25T01:59:58.104Z,11.52
2022-09-25T02:01:59.394Z,11.57
2022-09-25T02:04:00.778Z,11.54
2022-09-25T02:06:02.702Z,11.52
2022-09-25T02:08:03.637Z,11.58
2022-09-25T02:10:05.007Z,11.65
2022-09-25T02:12:06.499Z,11.65
2022-09-25T02:14:07.470Z,11.65
2022-09-25T02:16:09.212Z,11.6
2022-09-25T02:18:10.610Z,11.61
2022-09-25T02:20:12.540Z,11.62
2022-09-25T02:22:13.531Z,11.7
2022-09-25T02:24:15.191Z,11.71
2022-09-25T02:26:16.758Z,11.72
2022-09-25T02:28:18.614Z,11.75
2022-09-25T02:30:20.241Z,11.78
2022-09-25T02:32:21.434Z,11.78
2022-09-25T02:34:23.246Z,11.78
2022-09-25T02:36:24.726Z,11.76
2022-09-25T02:38:25.950Z,11.75
2022-09-25T02:40:27.034Z,11.75
2022-09-25T02:42:28.197Z,11.75
2022-09-25T02:44:29.420Z,11.74
2022-09-25T02:46:31.107Z,11.74
2022-09-25T02:48:32.778Z,11.75
2022-09-25T02:50:34.522Z,11.78
2022-09-25T02:52:35.839Z,11.78
2022-09-25T02:54:37.742Z,11.8
2022-09-25T02:56:38.790Z,11.8
2022-09-25T02:58:40.200Z,11.79
2022-09-25T03:00:41.303Z,11.81
2022-09-25T03:02:43.975Z,11.82
2022-09-25T03:04:44.339Z,11.79
2022-09-25T03:06:46.185Z,11.78
2022-09-25T03:08:47.854Z,11.77
2022-09-25T03:10:48.961Z,11.79
2022-09-25T03:12:50.332Z,11.8
2022-09-25T03:14:52.111Z,11.79
2022-09-25T03:16:53.591Z,11.84
2022-09-25T03:18:55.226Z,11.84
2022-09-25T03:20:57.026Z,11.9
2022-09-25T03:22:58.830Z,11.95
2022-09-25T03:25:00.156Z,11.94
2022-09-25T03:27:01.330Z,11.96
2022-09-25T03:29:02.599Z,12.01
2022-09-25T03:31:04.254Z,11.98
2022-09-25T03:33:05.634Z,11.84
2022-09-25T03:35:07.185Z,11.85
2022-09-25T03:37:08.307Z,11.85
2022-09-25T03:39:09.970Z,11.85
2022-09-25T03:41:11.605Z,11.87
2022-09-25T03:45:14.515Z,11.9
2022-09-25T03:47:15.736Z,11.87
2022-09-25T03:49:16.745Z,11.92
2022-09-25T03:51:18.251Z,11.9
2022-09-25T03:53:19.266Z,11.9
2022-09-25T03:55:20.833Z,11.93
2022-09-25T03:57:21.949Z,11.95
2022-09-25T03:59:23.638Z,11.96
2022-09-25T04:01:24.938Z,11.97
2022-09-25T04:03:26.431Z,11.97
2022-09-25T04:05:27.366Z,11.99
2022-09-25T04:07:28.582Z,12.03
2022-09-25T04:09:29.658Z,12.01
2022-09-25T04:11:30.675Z,12.04
2022-09-25T04:13:32.449Z,11.96
2022-09-25T04:15:33.772Z,11.95
2022-09-25T04:17:35.044Z,11.95
2022-09-25T04:19:36.795Z,11.95
2022-09-25T04:21:38.285Z,11.92
2022-09-25T04:23:39.648Z,11.97
2022-09-25T04:25:40.866Z,12.02
2022-09-25T04:27:42.018Z,12
2022-09-25T04:29:43.270Z,12.02
2022-09-25T04:31:44.960Z,11.96
2022-09-25T04:33:46.241Z,11.96
2022-09-25T04:35:47.991Z,11.95
2022-09-25T04:37:49.479Z,11.94
2022-09-25T04:39:50.839Z,12.04
2022-09-25T04:41:52.651Z,12.01
2022-09-25T04:43:53.947Z,12.08
2022-09-25T04:45:55.128Z,12.11
2022-09-25T04:47:56.610Z,12.11
2022-09-25T04:49:58.014Z,12.13
2022-09-25T04:51:59.141Z,12.11
2022-09-25T04:54:00.452Z,12.13
2022-09-25T04:56:01.858Z,12.15
2022-09-25T04:58:03.672Z,12.13
2022-09-25T05:00:04.602Z,12.15
2022-09-25T05:02:05.659Z,12.13
2022-09-25T05:04:08.816Z,12.12
2022-09-25T05:06:07.825Z,12.09
2022-09-25T05:08:09.238Z,12.09
2022-09-25T05:10:10.982Z,12.14
2022-09-25T05:12:12.238Z,12.07
2022-09-25T05:14:13.683Z,12.08
2022-09-25T05:16:14.890Z,12.07
2022-09-25T05:18:15.849Z,12.01
2022-09-25T05:20:17.135Z,11.98
2022-09-25T05:22:18.187Z,12.03
2022-09-25T05:24:19.906Z,12.02
2022-09-25T05:26:21.088Z,12.05
2022-09-25T05:28:22.370Z,12.05
2022-09-25T05:30:23.434Z,12.05
2022-09-25T05:34:25.956Z,12.04
2022-09-25T05:36:27.032Z,12.07
2022-09-25T05:38:28.064Z,12.08
2022-09-25T05:40:29.474Z,12.07
2022-09-25T05:42:30.902Z,12.08
2022-09-25T05:45:16.582Z,12.1
2022-09-25T05:47:17.794Z,12.15
2022-09-25T05:49:18.792Z,12.15
2022-09-25T05:51:20.272Z,12.12
2022-09-25T05:53:21.369Z,12.12
2022-09-25T05:55:23.111Z,12.17
2022-09-25T05:57:24.232Z,12.11
2022-09-25T05:59:25.941Z,12.08
2022-09-25T06:01:27.649Z,12.07
2022-09-25T06:03:28.546Z,12.06
2022-09-25T06:05:30.048Z,12.09
2022-09-25T06:07:31.723Z,12.08
2022-09-25T06:09:33.011Z,12.12
2022-09-25T06:11:34.263Z,12.21
2022-09-25T06:13:35.744Z,12.14
2022-09-25T06:15:37.361Z,12.17
2022-09-25T06:17:39.208Z,12.17
2022-09-25T06:19:40.722Z,12.08
2022-09-25T06:21:42.352Z,12.08
2022-09-25T06:23:44.215Z,12.07
2022-09-25T06:25:45.630Z,12.14
2022-09-25T06:27:46.770Z,12.18
2022-09-25T06:29:48.265Z,12.25
2022-09-25T06:31:49.701Z,12.27
2022-09-25T06:33:50.957Z,12.32
2022-09-25T06:35:52.785Z,12.39
2022-09-25T06:37:53.932Z,12.41
2022-09-25T06:39:55.040Z,12.41
2022-09-25T06:41:56.437Z,12.44
2022-09-25T06:43:57.953Z,12.4
2022-09-25T06:45:59.657Z,12.33
2022-09-25T06:48:00.547Z,12.4
2022-09-25T06:50:01.549Z,12.39
2022-09-25T06:52:03.382Z,12.44
2022-09-25T06:54:04.873Z,12.43
2022-09-25T06:56:06.676Z,12.32
2022-09-25T06:58:08.403Z,12.33
2022-09-25T07:00:09.567Z,12.35
2022-09-25T07:02:11.008Z,12.38
2022-09-25T07:04:12.593Z,12.38
2022-09-25T07:06:13.394Z,12.38
2022-09-25T07:08:15.278Z,12.4
2022-09-25T07:10:16.307Z,12.41
2022-09-25T07:12:17.847Z,12.37
2022-09-25T07:14:18.824Z,12.33
2022-09-25T07:16:20.038Z,12.32
2022-09-25T07:18:21.386Z,12.35
2022-09-25T07:20:22.792Z,12.34
2022-09-25T07:22:23.944Z,12.32
2022-09-25T07:24:25.334Z,12.32
2022-09-25T07:26:26.543Z,12.35
2022-09-25T07:28:28.300Z,12.32
2022-09-25T07:30:29.879Z,12.33
2022-09-25T07:32:31.764Z,12.32
2022-09-25T07:34:32.822Z,12.33
2022-09-25T07:36:33.832Z,12.3
2022-09-25T07:38:35.629Z,12.3
2022-09-25T07:40:37.340Z,12.31
2022-09-25T07:42:38.837Z,12.21
2022-09-25T07:44:43.548Z,12.28
2022-09-25T07:48:43.410Z,12.28
2022-09-25T07:50:44.314Z,12.28
2022-09-25T07:52:46.026Z,12.28
2022-09-25T07:54:47.824Z,12.25
2022-09-25T07:56:49.208Z,12.33
2022-09-25T07:58:50.327Z,12.33
2022-09-25T08:00:52.086Z,12.31
2022-09-25T08:02:54.007Z,12.29
2022-09-25T08:04:55.780Z,12.31
2022-09-25T08:06:57.547Z,12.36
2022-09-25T08:08:58.482Z,12.37
2022-09-25T08:11:00.057Z,12.35
2022-09-25T08:13:01.235Z,12.43
2022-09-25T08:15:03.065Z,12.39
2022-09-25T08:17:04.873Z,12.42
2022-09-25T08:19:06.376Z,12.37
2022-09-25T08:21:07.520Z,12.45
2022-09-25T08:23:08.636Z,12.38
2022-09-25T08:25:10.139Z,12.39
2022-09-25T08:27:11.110Z,12.35
2022-09-25T08:29:12.498Z,12.35
2022-09-25T08:31:13.661Z,12.4
2022-09-25T08:33:15.603Z,12.48
2022-09-25T08:35:16.018Z,12.48
2022-09-25T08:37:17.383Z,12.42
2022-09-25T08:39:18.596Z,12.43
2022-09-25T08:41:20.029Z,12.48
2022-09-25T08:43:21.352Z,12.55
2022-09-25T08:45:22.785Z,12.52
2022-09-25T08:47:24.458Z,12.43
2022-09-25T08:49:25.377Z,12.36
2022-09-25T08:51:26.744Z,12.51
2022-09-25T08:53:27.683Z,12.53
2022-09-25T08:55:29.273Z,12.67
2022-09-25T08:57:31.096Z,12.71
2022-09-25T08:59:32.338Z,12.5
2022-09-25T09:01:33.610Z,12.55
2022-09-25T09:03:35.394Z,12.52
2022-09-25T09:05:36.973Z,12.49
2022-09-25T09:07:38.373Z,12.54
2022-09-25T09:09:39.624Z,12.53
2022-09-25T09:11:41.333Z,12.54
2022-09-25T09:13:42.245Z,12.57
2022-09-25T09:15:43.831Z,12.63
2022-09-25T09:17:45.001Z,12.65
2022-09-25T09:19:46.584Z,12.64
2022-09-25T09:21:48.239Z,12.68
2022-09-25T09:23:49.911Z,12.68
2022-09-25T09:25:51.395Z,12.64
2022-09-25T09:27:53.125Z,12.7
2022-09-25T09:29:54.704Z,12.72
2022-09-25T09:31:56.285Z,12.7
2022-09-25T09:33:57.331Z,12.62
2022-09-25T09:35:58.321Z,12.76
2022-09-25T09:37:59.837Z,12.8
2022-09-25T09:40:01.504Z,13.02
2022-09-25T09:42:03.267Z,13.36
2022-09-25T09:44:04.899Z,13.55
2022-09-25T09:46:06.268Z,13.65
2022-09-25T09:48:07.860Z,13.68
2022-09-25T09:50:09.389Z,13.66
2022-09-25T09:52:10.847Z,13.86
2022-09-25T09:54:12.082Z,14.16
2022-09-25T09:56:12.969Z,14.22
2022-09-25T09:58:14.492Z,14.29
2022-09-25T10:00:16.069Z,13.89
2022-09-25T10:02:17.810Z,13.89
2022-09-25T10:04:18.609Z,14.12
2022-09-25T10:06:22.563Z,14.29
2022-09-25T10:08:20.793Z,14.35
2022-09-25T10:10:21.932Z,14.4
2022-09-25T10:12:23.445Z,14.57
2022-09-25T10:14:24.721Z,14.74
2022-09-25T10:16:25.659Z,14.83
2022-09-25T10:18:27.048Z,14.78
2022-09-25T10:20:28.413Z,14.55
2022-09-25T10:22:29.653Z,14.44
2022-09-25T10:24:31.473Z,14.54
2022-09-25T10:26:32.457Z,14.44
2022-09-25T10:28:33.385Z,14.03
2022-09-25T10:30:34.323Z,14.01
2022-09-25T10:32:36.077Z,14.05
2022-09-25T10:34:37.149Z,14.09
2022-09-25T10:36:38.656Z,14.05
2022-09-25T10:38:40.053Z,13.76
2022-09-25T10:40:41.127Z,13.72
2022-09-25T10:42:42.315Z,13.76
2022-09-25T10:44:43.693Z,13.8
2022-09-25T10:46:44.615Z,13.85
2022-09-25T10:48:45.680Z,13.84
2022-09-25T10:50:46.605Z,13.75
2022-09-25T10:52:47.807Z,13.8
2022-09-25T10:54:49.520Z,13.73
2022-09-25T10:56:51.256Z,13.69
2022-09-25T10:58:52.399Z,13.67
2022-09-25T11:00:53.814Z,13.74
2022-09-25T11:02:55.233Z,13.86
2022-09-25T11:04:56.791Z,13.98
2022-09-25T11:06:57.775Z,14.04
2022-09-25T11:08:58.999Z,13.99
2022-09-25T11:11:00.574Z,14.18
2022-09-25T11:13:01.972Z,14.33
2022-09-25T11:15:03.392Z,14.33
2022-09-25T11:17:05.076Z,14.3
2022-09-25T11:19:06.357Z,14.41
2022-09-25T11:21:07.306Z,14.33
2022-09-25T11:23:08.286Z,14.39
2022-09-25T11:25:09.345Z,14.7
2022-09-25T11:27:10.773Z,14.86
2022-09-25T11:29:12.263Z,14.86
2022-09-25T11:31:13.535Z,14.88
2022-09-25T11:33:14.902Z,15.04
2022-09-25T11:35:15.833Z,15.11
2022-09-25T11:37:17.561Z,15.23
2022-09-25T11:39:18.982Z,15.28
2022-09-25T11:41:20.319Z,14.86
2022-09-25T11:43:21.174Z,15.05
2022-09-25T11:45:22.351Z,15.19
2022-09-25T11:47:23.348Z,15.2
2022-09-25T11:49:25.052Z,15.01
2022-09-25T11:51:26.245Z,14.83
2022-09-25T11:53:27.367Z,14.85
2022-09-25T11:55:29.212Z,15.01
2022-09-25T11:57:34.358Z,14.94
2022-09-25T11:59:31.778Z,14.93
2022-09-25T12:01:32.914Z,14.98
2022-09-25T12:03:34.308Z,14.83
2022-09-25T12:05:35.830Z,14.75
2022-09-25T12:07:37.433Z,14.79
2022-09-25T12:09:39.124Z,14.79
2022-09-25T12:11:40.556Z,14.52
2022-09-25T12:13:41.882Z,14.58
2022-09-25T12:15:43.486Z,14.17
2022-09-25T12:17:44.911Z,14.16
2022-09-25T12:19:46.134Z,13.81
2022-09-25T12:21:47.410Z,13.71
2022-09-25T12:23:48.724Z,13.45
2022-09-25T12:25:50.375Z,13.36
2022-09-25T12:27:51.374Z,13.34
2022-09-25T12:30:36.747Z,13.24
2022-09-25T12:32:37.748Z,13.3
2022-09-25T12:34:38.731Z,13.22
2022-09-25T12:36:40.578Z,13.12
2022-09-25T12:38:42.319Z,13.01
2022-09-25T12:40:44.158Z,13.01
2022-09-25T12:42:45.381Z,13.06
2022-09-25T12:44:47.145Z,13.09
2022-09-25T12:46:48.190Z,13.14
2022-09-25T12:48:49.875Z,13.14
2022-09-25T12:50:51.560Z,13.04
2022-09-25T12:52:53.524Z,13.2
2022-09-25T12:54:54.309Z,13.14
2022-09-25T12:56:55.952Z,13.29
2022-09-25T12:58:57.724Z,13.49
2022-09-25T13:00:58.954Z,13.59
2022-09-25T13:03:00.381Z,13.65
2022-09-25T13:05:01.290Z,13.8
2022-09-25T13:07:02.876Z,13.84
2022-09-25T13:09:04.440Z,13.8
2022-09-25T13:11:05.433Z,13.68
2022-09-25T13:13:10.728Z,13.63
2022-09-25T13:15:07.945Z,13.83
2022-09-25T13:17:09.059Z,13.88
2022-09-25T13:19:10.674Z,14.01
2022-09-25T13:21:12.413Z,14.17
2022-09-25T13:23:13.669Z,14.01
2022-09-25T13:25:14.634Z,14.25
2022-09-25T13:27:15.864Z,14.42
2022-09-25T13:29:17.505Z,14.45
2022-09-25T13:33:19.863Z,14.78
2022-09-25T13:35:20.925Z,15.09
2022-09-25T13:37:22.523Z,15.63
2022-09-25T13:39:23.847Z,15.81
2022-09-25T13:41:25.207Z,15.38
2022-09-25T13:43:26.159Z,15.33
2022-09-25T13:45:27.828Z,15.51
2022-09-25T13:47:29.186Z,15.55
2022-09-25T13:49:30.579Z,15.38
2022-09-25T13:51:31.776Z,15.26
2022-09-25T13:53:37.273Z,15.13
2022-09-25T13:55:35.474Z,15.06
2022-09-25T13:57:36.795Z,15.33
2022-09-25T13:59:38.412Z,15.79
2022-09-25T14:01:39.380Z,15.77
2022-09-25T14:03:40.301Z,15.44
2022-09-25T14:05:42.107Z,15.07
2022-09-25T14:07:43.560Z,15.21
2022-09-25T14:09:45.231Z,15.31
2022-09-25T14:11:46.182Z,15.25
2022-09-25T14:13:47.633Z,15.15
2022-09-25T14:15:48.588Z,15.03
2022-09-25T14:17:49.502Z,14.85
2022-09-25T14:19:51.252Z,14.92
2022-09-25T14:21:52.224Z,14.92
2022-09-25T14:23:53.512Z,14.7
2022-09-25T14:25:58.070Z,14.44
2022-09-25T14:27:56.201Z,14.17
2022-09-25T14:29:57.878Z,13.81
2022-09-25T14:31:59.339Z,13.68
2022-09-25T14:34:00.980Z,13.45
2022-09-25T14:36:02.250Z,13.36
2022-09-25T14:38:03.261Z,13.25
2022-09-25T14:40:04.878Z,12.98
2022-09-25T14:42:06.468Z,13
2022-09-25T14:44:08.362Z,12.98
2022-09-25T14:46:11.802Z,12.74
2022-09-25T14:48:11.002Z,12.57
2022-09-25T14:50:11.852Z,12.64
2022-09-25T14:52:13.519Z,12.65
2022-09-25T14:54:15.221Z,12.62
2022-09-25T14:56:16.766Z,12.56
2022-09-25T14:58:18.449Z,12.68
2022-09-25T15:00:19.738Z,12.8
2022-09-25T15:02:21.506Z,12.94
2022-09-25T15:04:22.971Z,12.91
2022-09-25T15:06:24.014Z,13.04
2022-09-25T15:08:25.236Z,13.19
2022-09-25T15:10:26.740Z,13.34
2022-09-25T15:12:27.984Z,13.33
2022-09-25T15:14:30.129Z,13.21
2022-09-25T15:16:31.500Z,13.46
2022-09-25T15:18:33.196Z,13.26
2022-09-25T15:20:34.448Z,13.21
2022-09-25T15:22:36.204Z,13.09
2022-09-25T15:24:37.979Z,13
2022-09-25T15:26:39.553Z,13.12
2022-09-25T15:28:41.181Z,13.15
2022-09-25T15:30:42.845Z,13.07
2022-09-25T15:32:43.978Z,13.11
2022-09-25T15:34:45.827Z,13.17
2022-09-25T15:36:47.682Z,13.08
2022-09-25T15:38:49.353Z,12.97
2022-09-25T15:40:50.344Z,12.87
2022-09-25T15:42:51.505Z,12.91
2022-09-25T15:44:53.013Z,13.05
2022-09-25T15:46:54.369Z,13.05
2022-09-25T15:48:55.995Z,13.08
2022-09-25T15:50:57.810Z,12.88
2022-09-25T15:52:59.292Z,12.91
2022-09-25T15:55:00.814Z,12.91
2022-09-25T15:57:01.919Z,12.91
2022-09-25T15:59:03.776Z,12.94
2022-09-25T16:01:05.013Z,12.92
2022-09-25T16:03:06.234Z,12.95
2022-09-25T16:05:08.039Z,12.89
2022-09-25T16:07:09.397Z,12.94
2022-09-25T16:09:10.646Z,12.92
2022-09-25T16:11:12.219Z,12.8
2022-09-25T16:13:13.538Z,12.86
2022-09-25T16:15:15.237Z,12.85
2022-09-25T16:17:16.979Z,12.86
2022-09-25T16:19:18.661Z,12.85
2022-09-25T16:21:19.766Z,12.82
2022-09-25T16:23:20.867Z,12.77
2022-09-25T16:25:22.253Z,12.69
2022-09-25T16:27:23.290Z,12.77
2022-09-25T16:29:24.189Z,12.71
2022-09-25T16:31:25.682Z,12.55
2022-09-25T16:33:26.581Z,12.57
2022-09-25T16:35:31.167Z,12.53
2022-09-25T16:37:29.173Z,12.54
2022-09-25T16:39:30.600Z,12.49
2022-09-25T16:41:31.746Z,12.45
2022-09-25T16:43:33.166Z,12.37
2022-09-25T16:45:34.560Z,12.47
2022-09-25T16:47:35.889Z,12.47
2022-09-25T16:49:36.843Z,12.46
2022-09-25T16:51:38.424Z,12.42
2022-09-25T16:53:40.328Z,12.42
2022-09-25T16:55:41.861Z,12.42
2022-09-25T16:57:46.072Z,12.43
2022-09-25T16:59:45.611Z,12.46
2022-09-25T17:01:47.500Z,12.43
2022-09-25T17:03:48.581Z,12.41
2022-09-25T17:05:50.100Z,12.45
2022-09-25T17:07:51.402Z,12.38
2022-09-25T17:09:52.877Z,12.35
2022-09-25T17:11:54.145Z,12.34
2022-09-25T17:13:55.180Z,12.32
2022-09-25T17:15:56.257Z,12.32
2022-09-25T17:17:57.506Z,12.27
2022-09-25T17:19:58.873Z,12.23
2022-09-25T17:22:00.525Z,12.2
2022-09-25T17:24:02.111Z,12.2
2022-09-25T17:26:03.506Z,12.11
2022-09-25T17:28:04.711Z,12.18
2022-09-25T17:30:05.756Z,12.14
2022-09-25T17:32:07.172Z,12.1
2022-09-25T17:34:08.739Z,12.18
2022-09-25T17:36:10.068Z,12.09
2022-09-25T17:38:11.253Z,12.12
2022-09-25T17:40:13.088Z,12.08
2022-09-25T17:42:14.693Z,12.06
2022-09-25T17:44:16.582Z,12.01
2022-09-25T17:46:18.306Z,12.07
2022-09-25T17:48:19.443Z,12.07
2022-09-25T17:50:21.250Z,12.08
2022-09-25T17:52:22.449Z,12.1
2022-09-25T17:54:24.171Z,12.12
2022-09-25T17:56:25.329Z,12.09
2022-09-25T17:58:26.945Z,12.1
2022-09-25T18:00:28.007Z,12.17
2022-09-25T18:02:29.763Z,12.18
2022-09-25T18:04:31.546Z,12.08
2022-09-25T18:06:32.872Z,12.1
2022-09-25T18:08:34.362Z,12.08
2022-09-25T18:10:36.227Z,12.08
2022-09-25T18:12:37.890Z,12.14
2022-09-25T18:14:38.951Z,12.11
2022-09-25T18:16:39.880Z,12.06
2022-09-25T18:18:41.117Z,12.05
2022-09-25T18:20:42.160Z,11.99
2022-09-25T18:22:43.479Z,12.04
2022-09-25T18:24:45.169Z,11.99
2022-09-25T18:26:46.818Z,11.89
2022-09-25T18:28:47.970Z,11.87
2022-09-25T18:30:49.184Z,11.92
2022-09-25T18:32:50.255Z,11.82
2022-09-25T18:34:52.101Z,11.85
2022-09-25T18:36:53.157Z,11.86
2022-09-25T18:38:54.371Z,11.89
2022-09-25T18:40:56.232Z,11.89
2022-09-25T18:42:57.530Z,11.85
2022-09-25T18:44:58.712Z,11.83
2022-09-25T18:46:59.944Z,11.82
2022-09-25T18:49:01.639Z,11.8
2022-09-25T18:51:03.417Z,11.78
2022-09-25T18:53:04.998Z,11.79
2022-09-25T18:55:06.572Z,11.78
2022-09-25T18:57:07.633Z,11.74
2022-09-25T18:59:08.669Z,11.74
2022-09-25T19:03:11.106Z,11.75
2022-09-25T19:05:12.427Z,11.75
2022-09-25T19:07:13.623Z,11.77
2022-09-25T19:09:16.819Z,11.78
2022-09-25T19:11:16.605Z,11.8
2022-09-25T19:13:18.100Z,11.79
2022-09-25T19:14:01.909Z,11.8
2022-09-25T19:16:03.507Z,11.79
2022-09-25T19:18:04.666Z,11.78
2022-09-25T19:20:06.356Z,11.77
2022-09-25T19:22:07.557Z,11.75
2022-09-25T19:24:09.293Z,11.74
2022-09-25T19:26:10.835Z,11.74
2022-09-25T19:28:12.701Z,11.72
2022-09-25T19:30:13.944Z,11.65
2022-09-25T19:32:15.680Z,11.64
2022-09-25T19:34:17.253Z,11.67
2022-09-25T19:36:18.973Z,11.66
2022-09-25T19:38:20.025Z,11.64
2022-09-25T19:40:21.434Z,11.63
2022-09-25T19:42:23.185Z,11.66
2022-09-25T19:44:25.114Z,11.64
2022-09-25T19:46:26.080Z,11.7
2022-09-25T19:48:27.570Z,11.71
2022-09-25T19:50:29.260Z,11.7
2022-09-25T19:52:30.281Z,11.69
2022-09-25T19:54:31.273Z,11.72
2022-09-25T19:56:32.211Z,11.7
2022-09-25T19:58:33.250Z,11.71
2022-09-25T20:00:34.790Z,11.69
2022-09-25T20:02:36.595Z,11.72
2022-09-25T20:04:37.673Z,11.74
2022-09-25T20:06:38.623Z,11.74
2022-09-25T20:08:39.894Z,11.74
2022-09-25T20:10:41.559Z,11.68
2022-09-25T20:12:42.622Z,11.67
2022-09-25T20:14:44.076Z,11.69
2022-09-25T20:16:45.326Z,11.63
2022-09-25T20:18:46.358Z,11.66
2022-09-25T20:20:47.497Z,11.64
2022-09-25T20:22:49.144Z,11.57
2022-09-25T20:24:50.686Z,11.6
2022-09-25T20:26:52.186Z,11.58
2022-09-25T20:28:53.583Z,11.53
2022-09-25T20:30:54.637Z,11.54
2022-09-25T20:32:56.435Z,11.51
2022-09-25T20:34:57.499Z,11.49
2022-09-25T20:36:59.275Z,11.45
2022-09-25T20:39:00.228Z,11.48
2022-09-25T20:41:01.561Z,11.46
2022-09-25T20:43:02.561Z,11.43
2022-09-25T20:45:03.615Z,11.41
2022-09-25T20:47:04.984Z,11.39
2022-09-25T20:49:06.862Z,11.36
2022-09-25T20:51:08.718Z,11.35
2022-09-25T20:53:09.663Z,11.34
2022-09-25T20:55:10.966Z,11.35
2022-09-25T20:57:12.861Z,11.37
2022-09-25T20:59:14.512Z,11.34
2022-09-25T21:01:16.514Z,11.32
2022-09-25T21:03:18.306Z,11.33
2022-09-25T21:05:19.325Z,11.32
2022-09-25T21:07:20.726Z,11.34
2022-09-25T21:09:22.119Z,11.33
2022-09-25T21:11:23.225Z,11.29
2022-09-25T21:13:24.699Z,11.3
2022-09-25T21:15:26.270Z,11.3
2022-09-25T21:17:27.183Z,11.31
2022-09-25T21:21:30.375Z,11.25
2022-09-25T21:23:32.060Z,11.27
2022-09-25T21:25:33.396Z,11.23
2022-09-25T21:27:34.593Z,11.2
2022-09-25T21:29:35.742Z,11.23
2022-09-25T21:31:36.948Z,11.17
2022-09-25T21:33:38.792Z,11.18
2022-09-25T21:35:39.746Z,11.18
2022-09-25T21:37:40.643Z,11.16
2022-09-25T21:39:41.922Z,11.14
2022-09-25T21:41:43.633Z,11.12
2022-09-25T21:43:45.067Z,11.13
2022-09-25T21:45:46.576Z,11.13
2022-09-25T21:47:47.643Z,11.06
2022-09-25T21:49:48.613Z,11.1
2022-09-25T21:53:51.664Z,11.06
2022-09-25T21:55:53.000Z,11.04
2022-09-25T21:57:54.179Z,11.06
2022-09-25T21:59:55.588Z,11.05
2022-09-25T22:01:57.420Z,11.04
2022-09-25T22:03:59.105Z,11.06
2022-09-25T22:06:00.436Z,11.04
2022-09-25T22:08:02.286Z,11.05
2022-09-25T22:10:03.562Z,11.04
2022-09-25T22:12:05.487Z,11.06
2022-09-25T22:14:09.863Z,11.06
2022-09-25T22:16:09.130Z,11.07
2022-09-25T22:18:10.130Z,11.07
2022-09-25T22:20:11.751Z,11.07
2022-09-25T22:22:13.570Z,11.04
2022-09-25T22:24:15.326Z,11.03
2022-09-25T22:26:16.939Z,11.01
2022-09-25T22:28:18.684Z,11.01
2022-09-25T22:30:20.025Z,11.01
2022-09-25T22:32:21.574Z,10.99
2022-09-25T22:34:22.634Z,11.02
2022-09-25T22:36:23.931Z,11.02
2022-09-25T22:38:24.878Z,10.98
2022-09-25T22:40:26.733Z,10.99
2022-09-25T22:42:28.408Z,10.98
2022-09-25T22:44:30.091Z,10.97
2022-09-25T22:46:31.857Z,10.94
2022-09-25T22:48:33.141Z,10.94
2022-09-25T22:50:34.416Z,10.84
2022-09-25T22:52:36.318Z,10.79
2022-09-25T22:54:37.592Z,10.81
2022-09-25T22:56:39.141Z,10.86
2022-09-25T22:58:40.286Z,10.86
2022-09-25T23:00:41.293Z,10.87
2022-09-25T23:02:42.707Z,10.9
2022-09-25T23:04:44.233Z,10.94
2022-09-25T23:06:45.540Z,10.94
2022-09-25T23:08:47.031Z,10.93
2022-09-25T23:11:02.933Z,10.9
2022-09-25T23:12:50.389Z,10.87
2022-09-25T23:14:51.984Z,10.83
2022-09-25T23:16:53.898Z,10.82
2022-09-25T23:18:55.515Z,10.82
2022-09-25T23:20:56.583Z,10.82
2022-09-25T23:22:57.977Z,10.8
2022-09-25T23:24:59.746Z,10.78
2022-09-25T23:27:00.801Z,10.76
2022-09-25T23:29:02.060Z,10.77
2022-09-25T23:31:03.111Z,10.7
2022-09-25T23:33:04.694Z,10.72
2022-09-25T23:35:06.539Z,10.71
2022-09-25T23:37:08.198Z,10.66
2022-09-25T23:39:09.775Z,10.63
2022-09-25T23:41:11.611Z,10.63
2022-09-25T23:43:12.712Z,10.59
2022-09-25T23:45:14.584Z,10.58
2022-09-25T23:47:15.886Z,10.44
2022-09-25T23:49:17.475Z,10.44
2022-09-25T23:51:19.333Z,10.52
2022-09-25T23:53:20.304Z,10.47
2022-09-25T23:55:21.478Z,10.45
2022-09-25T23:57:23.359Z,10.51
2022-09-25T23:59:24.626Z,10.44
